createdAt,value
2023-02-22T00:02:13.041Z,10.40
2023-02-22T00:04:40.307Z,10.65
2023-02-22T00:07:09.084Z,11.60
2023-02-22T00:09:36.312Z,10.15
2023-02-22T00:12:03.807Z,12.25
2023-02-22T00:14:31.034Z,10.68
2023-02-22T00:16:58.258Z,11.10
2023-02-22T00:19:25.602Z,11.02
2023-02-22T00:21:52.912Z,11.00
2023-02-22T00:24:21.522Z,10.75
2023-02-22T00:26:50.171Z,11.43
2023-02-22T00:29:17.839Z,13.88
2023-02-22T00:31:45.089Z,13.30
2023-02-22T00:34:13.786Z,13.75
2023-02-22T00:36:45.301Z,10.18
2023-02-22T00:39:13.126Z,9.95
2023-02-22T00:41:41.806Z,9.43
2023-02-22T00:44:09.103Z,9.93
2023-02-22T00:46:36.314Z,12.35
2023-02-22T00:49:03.532Z,12.52
2023-02-22T00:51:30.992Z,10.85
2023-02-22T00:53:58.184Z,11.60
2023-02-22T00:56:25.505Z,10.27
2023-02-22T00:58:54.078Z,11.70
2023-02-22T01:01:21.682Z,11.68
2023-02-22T01:03:49.008Z,9.27
2023-02-22T01:06:16.982Z,9.82
2023-02-22T01:08:45.065Z,11.48
2023-02-22T01:11:12.307Z,8.40
2023-02-22T01:13:39.535Z,7.95
2023-02-22T01:16:08.349Z,8.43
2023-02-22T01:18:35.888Z,8.02
2023-02-22T01:21:03.361Z,9.45
2023-02-22T01:23:31.037Z,8.93
2023-02-22T01:25:58.741Z,9.55
2023-02-22T01:28:26.339Z,9.27
2023-02-22T01:30:53.736Z,12.48
2023-02-22T01:33:22.345Z,12.05
2023-02-22T01:35:49.614Z,10.10
2023-02-22T01:38:17.550Z,9.60
2023-02-22T01:40:48.875Z,8.95
2023-02-22T01:43:19.640Z,8.93
2023-02-22T01:45:57.848Z,11.65
2023-02-22T01:48:35.810Z,10.45
2023-02-22T01:51:08.162Z,10.13
2023-02-22T01:53:40.006Z,9.70
2023-02-22T01:56:08.462Z,8.75
2023-02-22T01:58:37.265Z,8.95
2023-02-22T02:01:05.188Z,9.23
2023-02-22T02:03:37.994Z,8.45
2023-02-22T02:06:10.160Z,7.63
2023-02-22T02:08:44.310Z,7.90
2023-02-22T02:11:11.576Z,9.45
2023-02-22T02:13:38.894Z,10.48
2023-02-22T02:16:06.579Z,9.15
2023-02-22T02:18:35.551Z,9.70
2023-02-22T02:21:36.332Z,8.52
2023-02-22T02:27:03.608Z,7.65
2023-02-22T02:30:05.216Z,9.93
2023-02-22T02:32:45.126Z,8.05
2023-02-22T02:35:19.438Z,8.00
2023-02-22T02:37:56.189Z,7.25
2023-02-22T02:40:31.853Z,7.85
2023-02-22T02:43:06.288Z,9.32
2023-02-22T02:45:41.418Z,8.10
2023-02-22T02:48:14.185Z,11.90
2023-02-22T02:50:44.794Z,10.45
2023-02-22T02:53:15.466Z,13.15
2023-02-22T02:55:43.853Z,8.88
2023-02-22T02:58:18.640Z,14.25
2023-02-22T03:00:47.246Z,13.65
2023-02-22T03:03:57.950Z,10.80
2023-02-22T03:06:55.315Z,15.77
2023-02-22T03:09:38.596Z,10.23
2023-02-22T03:12:17.020Z,15.25
2023-02-22T03:14:53.482Z,11.50
2023-02-22T03:17:26.326Z,14.07
2023-02-22T03:20:01.084Z,7.53
2023-02-22T03:22:37.636Z,13.00
2023-02-22T03:25:10.395Z,11.63
2023-02-22T03:27:45.068Z,6.80
2023-02-22T03:30:18.066Z,9.25
2023-02-22T03:32:49.200Z,7.90
2023-02-22T03:35:22.158Z,10.27
2023-02-22T03:37:54.811Z,9.60
2023-02-22T03:40:28.079Z,8.57
2023-02-22T03:43:02.307Z,8.75
2023-02-22T03:45:31.955Z,5.78
2023-02-22T03:48:04.898Z,9.25
2023-02-22T03:50:35.926Z,10.48
2023-02-22T03:53:05.066Z,12.13
2023-02-22T03:55:36.617Z,10.43
2023-02-22T03:58:09.965Z,11.55
2023-02-22T04:00:38.341Z,11.50
2023-02-22T04:03:05.600Z,10.75
2023-02-22T04:05:34.385Z,12.18
2023-02-22T04:08:02.755Z,12.85
2023-02-22T04:10:31.865Z,11.25
2023-02-22T04:13:00.281Z,11.95
2023-02-22T04:15:27.547Z,13.45
2023-02-22T04:18:01.652Z,8.07
2023-02-22T04:20:29.018Z,8.38
2023-02-22T04:23:01.241Z,7.47
2023-02-22T04:25:29.298Z,7.40
2023-02-22T04:27:57.376Z,6.82
2023-02-22T04:30:36.035Z,7.82
2023-02-22T04:33:05.565Z,9.27
2023-02-22T04:35:35.397Z,9.90
2023-02-22T04:38:05.346Z,8.23
2023-02-22T04:40:32.938Z,8.80
2023-02-22T04:43:00.292Z,9.13
2023-02-22T04:45:28.103Z,9.32
2023-02-22T04:47:55.433Z,8.73
2023-02-22T04:50:22.682Z,6.90
2023-02-22T04:52:49.879Z,8.02
2023-02-22T04:55:18.721Z,7.47
2023-02-22T04:57:46.108Z,7.43
2023-02-22T05:00:16.885Z,7.78
2023-02-22T05:02:44.722Z,7.70
2023-02-22T05:05:13.828Z,7.55
2023-02-22T05:07:41.012Z,7.47
2023-02-22T05:10:08.550Z,7.50
2023-02-22T05:12:37.587Z,7.57
2023-02-22T05:15:06.910Z,8.40
2023-02-22T05:17:34.786Z,7.05
2023-02-22T05:20:02.796Z,8.38
2023-02-22T05:22:30.147Z,9.02
2023-02-22T05:24:57.313Z,7.78
2023-02-22T05:27:24.540Z,9.23
2023-02-22T05:29:53.089Z,9.50
2023-02-22T05:32:20.279Z,8.82
2023-02-22T05:34:47.480Z,11.98
2023-02-22T05:37:14.696Z,6.65
2023-02-22T05:39:42.249Z,8.15
2023-02-22T05:42:09.410Z,9.57
2023-02-22T05:44:36.563Z,7.07
2023-02-22T05:47:05.194Z,9.38
2023-02-22T05:49:32.372Z,8.23
2023-02-22T05:51:59.560Z,9.52
2023-02-22T05:54:26.714Z,9.18
2023-02-22T05:56:53.923Z,10.23
2023-02-22T05:59:21.111Z,10.98
2023-02-22T06:01:48.274Z,11.65
2023-02-22T06:04:16.895Z,7.20
2023-02-22T06:06:44.210Z,6.72
2023-02-22T06:09:11.391Z,7.50
2023-02-22T06:11:38.589Z,9.05
2023-02-22T06:14:05.779Z,9.20
2023-02-22T06:16:33.020Z,8.52
2023-02-22T06:19:00.261Z,9.68
2023-02-22T06:21:28.806Z,10.30
2023-02-22T06:23:56.005Z,9.98
2023-02-22T06:26:23.168Z,9.65
2023-02-22T06:28:50.404Z,9.45
2023-02-22T06:31:18.004Z,9.30
2023-02-22T06:33:45.398Z,10.82
2023-02-22T06:36:12.659Z,9.45
2023-02-22T06:38:41.173Z,10.38
2023-02-22T06:41:09.199Z,8.82
2023-02-22T06:43:36.389Z,9.52
2023-02-22T06:46:03.642Z,9.70
2023-02-22T06:48:30.802Z,9.95
2023-02-22T06:50:57.973Z,11.23
2023-02-22T06:53:25.154Z,10.80
2023-02-22T06:55:54.636Z,9.82
2023-02-22T06:58:21.790Z,10.80
2023-02-22T07:00:49.020Z,14.98
2023-02-22T07:03:16.358Z,13.95
2023-02-22T07:05:43.549Z,18.52
2023-02-22T07:08:11.265Z,16.17
2023-02-22T07:10:39.998Z,12.20
2023-02-22T07:13:08.571Z,17.58
2023-02-22T07:15:36.262Z,15.30
2023-02-22T07:18:04.054Z,20.77
2023-02-22T07:20:31.782Z,14.80
2023-02-22T07:22:59.762Z,16.55
2023-02-22T07:25:27.005Z,23.77
2023-02-22T07:27:54.182Z,23.95
2023-02-22T07:30:25.463Z,18.63
2023-02-22T07:32:54.208Z,17.95
2023-02-22T07:35:23.972Z,17.13
2023-02-22T07:37:52.426Z,20.20
2023-02-22T07:40:21.692Z,16.27
2023-02-22T07:42:56.527Z,17.40
2023-02-22T07:45:27.655Z,16.48
2023-02-22T07:47:55.638Z,14.30
2023-02-22T07:50:24.433Z,12.00
2023-02-22T07:52:53.917Z,11.48
2023-02-22T07:55:24.475Z,13.52
2023-02-22T07:57:53.635Z,10.57
2023-02-22T08:00:24.326Z,13.23
2023-02-22T08:02:53.776Z,13.75
2023-02-22T08:05:23.637Z,13.82
2023-02-22T08:07:51.552Z,12.00
2023-02-22T08:10:21.306Z,11.90
2023-02-22T08:12:48.769Z,11.88
2023-02-22T08:15:18.512Z,10.48
2023-02-22T08:17:45.697Z,9.40
2023-02-22T08:20:14.367Z,11.00
2023-02-22T08:22:43.307Z,11.48
2023-02-22T08:25:10.809Z,13.48
2023-02-22T08:27:38.019Z,11.43
2023-02-22T08:30:06.500Z,12.05
2023-02-22T08:32:34.142Z,15.52
2023-02-22T08:35:02.105Z,13.88
2023-02-22T08:37:30.891Z,15.63
2023-02-22T08:39:58.060Z,23.00
2023-02-22T08:42:25.259Z,22.50
2023-02-22T08:44:52.473Z,19.98
2023-02-22T08:47:20.087Z,24.88
2023-02-22T08:49:47.351Z,14.93
2023-02-22T08:52:14.626Z,12.52
2023-02-22T08:54:45.749Z,11.10
2023-02-22T08:57:12.963Z,9.23
2023-02-22T08:59:40.582Z,11.88
2023-02-22T09:02:14.636Z,10.05
2023-02-22T09:04:41.867Z,10.63
2023-02-22T09:07:09.090Z,10.18
2023-02-22T09:09:36.310Z,11.73
2023-02-22T09:12:05.670Z,13.02
2023-02-22T09:14:32.867Z,9.10
2023-02-22T09:17:00.103Z,8.77
2023-02-22T09:19:27.341Z,8.75
2023-02-22T09:21:54.545Z,7.38
2023-02-22T09:24:22.128Z,7.25
2023-02-22T09:26:49.821Z,7.95
2023-02-22T09:29:18.420Z,7.95
2023-02-22T09:31:45.873Z,8.20
2023-02-22T09:34:13.073Z,7.88
2023-02-22T09:36:40.675Z,7.72
2023-02-22T09:39:07.997Z,8.20
2023-02-22T09:41:43.520Z,7.75
2023-02-22T09:44:22.472Z,7.85
2023-02-22T09:46:50.850Z,8.20
2023-02-22T09:49:22.962Z,7.95
2023-02-22T09:51:57.126Z,8.40
2023-02-22T09:54:29.458Z,7.45
2023-02-22T09:57:00.227Z,7.10
2023-02-22T09:59:31.764Z,6.63
2023-02-22T10:02:05.037Z,7.30
2023-02-22T10:04:41.140Z,8.20
2023-02-22T10:07:17.616Z,7.25
2023-02-22T10:09:47.458Z,7.18
2023-02-22T10:12:25.182Z,7.65
2023-02-22T10:15:36.449Z,6.95
2023-02-22T10:18:26.841Z,6.65
2023-02-22T10:20:59.843Z,7.45
2023-02-22T10:23:33.631Z,6.93
2023-02-22T10:26:13.387Z,6.25
2023-02-22T10:28:49.914Z,6.20
2023-02-22T10:31:23.185Z,6.65
2023-02-22T10:33:56.806Z,6.00
2023-02-22T10:36:26.047Z,6.57
2023-02-22T10:38:58.387Z,6.38
2023-02-22T10:41:29.594Z,6.10
2023-02-22T10:43:57.533Z,6.10
2023-02-22T10:46:29.179Z,6.28
2023-02-22T10:49:02.023Z,4.80
2023-02-22T10:51:29.487Z,4.57
2023-02-22T10:54:06.410Z,4.32
2023-02-22T10:56:33.631Z,4.85
2023-02-22T10:59:04.802Z,4.78
2023-02-22T11:01:37.466Z,5.00
2023-02-22T11:04:11.316Z,5.32
2023-02-22T11:06:40.200Z,4.95
2023-02-22T11:09:11.088Z,4.60
2023-02-22T11:11:40.120Z,4.33
2023-02-22T11:14:08.360Z,4.18
2023-02-22T11:16:39.060Z,5.25
2023-02-22T11:19:18.419Z,5.03
2023-02-22T11:21:46.407Z,5.20
2023-02-22T11:26:45.736Z,4.40
2023-02-22T11:29:19.519Z,4.85
2023-02-22T11:31:50.438Z,4.85
2023-02-22T11:34:33.537Z,4.65
2023-02-22T11:37:17.292Z,4.47
2023-02-22T11:39:44.940Z,4.65
2023-02-22T11:42:21.817Z,5.05
2023-02-22T11:44:49.090Z,5.22
2023-02-22T11:47:24.679Z,4.85
2023-02-22T11:49:52.023Z,4.82
2023-02-22T11:52:27.020Z,4.93
2023-02-22T11:55:06.196Z,5.85
2023-02-22T11:57:51.910Z,5.65
2023-02-22T12:00:26.498Z,5.80
2023-02-22T12:03:28.575Z,6.40
2023-02-22T12:06:17.932Z,5.15
2023-02-22T12:08:59.530Z,5.60
2023-02-22T12:11:35.661Z,6.03
2023-02-22T12:14:14.879Z,5.40
2023-02-22T12:17:02.860Z,5.38
2023-02-22T12:19:35.282Z,6.00
2023-02-22T12:22:08.224Z,5.95
2023-02-22T12:24:38.086Z,5.60
2023-02-22T12:27:11.167Z,5.22
2023-02-22T12:29:43.351Z,5.53
2023-02-22T12:32:15.373Z,5.32
2023-02-22T12:34:47.799Z,5.30
2023-02-22T12:37:21.963Z,5.30
2023-02-22T12:39:58.990Z,5.35
2023-02-22T12:42:33.846Z,5.35
2023-02-22T12:45:06.954Z,5.25
2023-02-22T12:47:45.678Z,5.07
2023-02-22T12:50:19.756Z,5.32
2023-02-22T12:52:53.153Z,5.05
2023-02-22T12:55:24.970Z,5.07
2023-02-22T12:57:59.298Z,4.82
2023-02-22T13:00:30.660Z,4.68
2023-02-22T13:03:01.951Z,5.05
2023-02-22T13:05:36.866Z,5.15
2023-02-22T13:08:24.087Z,5.30
2023-02-22T13:11:04.518Z,5.20
2023-02-22T13:13:40.364Z,5.15
2023-02-22T13:16:27.029Z,5.25
2023-02-22T13:19:00.346Z,5.50
2023-02-22T13:21:47.478Z,5.45
2023-02-22T13:24:23.070Z,5.15
2023-02-22T13:26:54.035Z,4.88
2023-02-22T13:29:24.646Z,5.00
2023-02-22T13:32:08.118Z,5.15
2023-02-22T13:34:54.353Z,5.65
2023-02-22T13:37:44.179Z,5.03
2023-02-22T13:40:40.102Z,5.60
2023-02-22T13:43:26.408Z,5.35
2023-02-22T13:46:24.153Z,4.97
2023-02-22T13:49:17.506Z,5.28
2023-02-22T13:51:48.970Z,4.72
2023-02-22T13:54:24.942Z,4.68
2023-02-22T13:56:55.197Z,5.20
2023-02-22T13:59:26.291Z,5.32
2023-02-22T14:01:53.827Z,5.50
2023-02-22T14:04:39.186Z,5.45
2023-02-22T14:07:53.791Z,5.53
2023-02-22T14:10:46.454Z,5.82
2023-02-22T14:13:14.372Z,5.90
2023-02-22T14:16:19.136Z,6.22
2023-02-22T14:18:49.149Z,6.60
2023-02-22T14:21:18.172Z,7.25
2023-02-22T14:23:47.124Z,7.00
2023-02-22T14:26:20.596Z,6.88
2023-02-22T14:28:53.955Z,6.82
2023-02-22T14:31:35.416Z,6.93
2023-02-22T14:34:09.270Z,6.65
2023-02-22T14:36:44.243Z,7.18
2023-02-22T14:39:17.761Z,7.15
2023-02-22T14:41:51.329Z,6.88
2023-02-22T14:44:24.000Z,6.65
2023-02-22T14:46:55.576Z,7.22
2023-02-22T14:49:27.581Z,7.60
2023-02-22T14:51:59.365Z,8.23
2023-02-22T14:57:05.954Z,7.88
2023-02-22T14:59:35.014Z,7.22
2023-02-22T15:02:11.357Z,7.68
2023-02-22T15:04:39.498Z,7.20
2023-02-22T15:07:09.471Z,6.97
2023-02-22T15:09:36.645Z,7.38
2023-02-22T15:12:23.575Z,7.47
2023-02-22T15:14:50.770Z,7.43
2023-02-22T15:17:21.439Z,6.63
2023-02-22T15:19:49.641Z,6.38
2023-02-22T15:22:21.935Z,6.70
2023-02-22T15:24:58.538Z,5.70
2023-02-22T15:27:28.373Z,7.50
2023-02-22T15:29:59.369Z,5.65
2023-02-22T15:32:31.135Z,5.53
2023-02-22T15:35:12.316Z,5.43
2023-02-22T15:37:40.131Z,4.78
2023-02-22T15:40:12.756Z,4.82
2023-02-22T15:42:46.272Z,5.13
2023-02-22T15:45:17.187Z,4.90
2023-02-22T15:47:44.402Z,4.10
2023-02-22T15:50:20.729Z,3.50
2023-02-22T15:52:51.872Z,3.70
2023-02-22T15:55:21.506Z,3.30
2023-02-22T15:57:50.619Z,3.47
2023-02-22T16:00:22.071Z,3.55
2023-02-22T16:02:50.449Z,3.42
2023-02-22T16:05:18.506Z,3.15
2023-02-22T16:07:49.385Z,3.22
2023-02-22T16:10:23.120Z,3.80
2023-02-22T16:13:03.791Z,3.38
2023-02-22T16:15:32.546Z,3.35
2023-02-22T16:18:23.570Z,3.33
2023-02-22T16:20:58.602Z,3.20
2023-02-22T16:23:27.676Z,3.47
2023-02-22T16:26:03.461Z,3.47
2023-02-22T16:28:32.058Z,3.28
2023-02-22T16:30:59.976Z,3.22
2023-02-22T16:33:27.668Z,3.50
2023-02-22T16:35:54.919Z,2.97
2023-02-22T16:38:22.418Z,3.10
2023-02-22T16:40:51.701Z,3.92
2023-02-22T16:43:21.926Z,3.40
2023-02-22T16:45:50.543Z,3.33
2023-02-22T16:48:20.770Z,3.30
2023-02-22T16:50:51.270Z,3.40
2023-02-22T16:53:21.224Z,2.97
2023-02-22T16:55:50.597Z,3.25
2023-02-22T16:58:18.831Z,3.88
2023-02-22T17:00:46.040Z,3.70
2023-02-22T17:03:16.501Z,3.47
2023-02-22T17:05:44.538Z,3.80
2023-02-22T17:08:11.895Z,3.42
2023-02-22T17:10:39.140Z,3.20
2023-02-22T17:13:21.790Z,3.78
2023-02-22T17:15:50.722Z,4.03
2023-02-22T17:18:20.272Z,4.28
2023-02-22T17:20:47.523Z,3.83
2023-02-22T17:23:14.833Z,4.43
2023-02-22T17:25:44.145Z,10.15
2023-02-22T17:28:12.153Z,4.65
2023-02-22T17:30:39.831Z,4.90
2023-02-22T17:33:08.428Z,89.20
2023-02-22T17:35:38.670Z,706.85
2023-02-22T17:38:06.442Z,406.88
2023-02-22T17:40:34.818Z,229.35
2023-02-22T17:43:02.323Z,306.77
2023-02-22T17:45:29.951Z,512.72
2023-02-22T17:47:57.759Z,336.92
2023-02-22T17:50:26.211Z,106.95
2023-02-22T17:52:54.744Z,62.95
2023-02-22T17:55:22.655Z,77.35
2023-02-22T17:57:53.875Z,89.03
2023-02-22T18:00:21.330Z,31.33
2023-02-22T18:02:49.810Z,29.60
2023-02-22T18:05:18.313Z,9.48
2023-02-22T18:07:46.037Z,6.45
2023-02-22T18:10:14.581Z,6.38
2023-02-22T18:12:42.390Z,5.18
2023-02-22T18:15:10.626Z,5.65
2023-02-22T18:17:38.026Z,5.07
2023-02-22T18:20:05.798Z,6.18
2023-02-22T18:22:33.041Z,5.70
2023-02-22T18:25:01.941Z,5.20
2023-02-22T18:27:30.630Z,6.68
2023-02-22T18:29:57.912Z,6.63
2023-02-22T18:32:25.204Z,6.57
2023-02-22T18:34:52.571Z,9.10
2023-02-22T18:37:19.790Z,6.55
2023-02-22T18:39:46.952Z,6.57
2023-02-22T18:42:14.401Z,6.90
2023-02-22T18:44:42.957Z,5.60
2023-02-22T18:47:10.275Z,10.82
2023-02-22T18:49:37.621Z,8.00
2023-02-22T18:52:04.925Z,10.48
2023-02-22T18:54:32.095Z,8.93
2023-02-22T18:56:59.315Z,11.10
2023-02-22T18:59:26.463Z,7.30
2023-02-22T19:01:55.031Z,5.95
2023-02-22T19:04:22.310Z,5.80
2023-02-22T19:06:49.514Z,6.30
2023-02-22T19:09:17.140Z,7.13
2023-02-22T19:11:44.331Z,6.68
2023-02-22T19:14:11.495Z,9.23
2023-02-22T19:16:39.522Z,211.52
2023-02-22T19:19:08.139Z,60.25
2023-02-22T19:21:35.320Z,7.40
2023-02-22T19:24:03.140Z,11.73
2023-02-22T19:26:30.357Z,7.75
2023-02-22T19:29:00.960Z,17.27
2023-02-22T19:31:30.393Z,5.75
2023-02-22T19:34:00.669Z,6.15
2023-02-22T19:36:29.301Z,7.50
2023-02-22T19:38:57.768Z,6.65
2023-02-22T19:41:24.967Z,6.97
2023-02-22T19:43:53.494Z,6.43
2023-02-22T19:46:21.192Z,7.10
2023-02-22T19:48:48.770Z,6.72
2023-02-22T19:51:17.472Z,6.93
2023-02-22T19:53:46.821Z,7.65
2023-02-22T19:56:16.239Z,7.75
2023-02-22T19:58:45.288Z,7.63
2023-02-22T20:01:13.343Z,8.13
2023-02-22T20:03:41.517Z,7.65
2023-02-22T20:06:09.779Z,8.13
2023-02-22T20:08:37.346Z,7.25
2023-02-22T20:11:07.076Z,7.40
2023-02-22T20:13:34.392Z,7.20
2023-02-22T20:16:02.013Z,7.72
2023-02-22T20:18:29.598Z,6.93
2023-02-22T20:20:56.876Z,7.80
2023-02-22T20:23:24.061Z,7.47
2023-02-22T20:25:52.821Z,7.85
2023-02-22T20:28:21.584Z,7.28
2023-02-22T20:30:49.143Z,7.03
2023-02-22T20:33:16.557Z,6.00
2023-02-22T20:35:43.878Z,7.10
2023-02-22T20:38:11.051Z,6.40
2023-02-22T20:40:40.439Z,7.40
2023-02-22T20:43:07.800Z,7.75
2023-02-22T20:45:37.110Z,7.97
2023-02-22T20:48:05.167Z,8.27
2023-02-22T20:50:34.799Z,8.00
2023-02-22T20:53:01.980Z,7.55
2023-02-22T20:55:29.128Z,7.38
2023-02-22T20:57:56.312Z,7.53
2023-02-22T21:00:23.893Z,6.72
2023-02-22T21:02:52.452Z,7.60
2023-02-22T21:05:19.678Z,6.50
2023-02-22T21:07:46.887Z,8.38
2023-02-22T21:10:14.069Z,7.32
2023-02-22T21:12:41.267Z,7.07
2023-02-22T21:15:09.643Z,7.55
2023-02-22T21:17:36.955Z,7.25
2023-02-22T21:20:06.246Z,7.72
2023-02-22T21:22:33.418Z,8.82
2023-02-22T21:25:00.570Z,6.90
2023-02-22T21:27:27.817Z,7.60
2023-02-22T21:29:54.974Z,6.30
2023-02-22T21:32:22.277Z,6.35
2023-02-22T21:34:50.217Z,6.18
2023-02-22T21:37:18.863Z,7.03
2023-02-22T21:39:46.066Z,7.78
2023-02-22T21:42:13.412Z,8.77
2023-02-22T21:44:40.569Z,7.93
2023-02-22T21:47:14.498Z,8.80
2023-02-22T21:49:43.903Z,9.05
2023-02-22T21:52:11.118Z,8.82
2023-02-22T21:54:39.712Z,8.10
2023-02-22T21:57:06.969Z,8.18
2023-02-22T21:59:34.739Z,7.53
2023-02-22T22:02:01.957Z,8.05
2023-02-22T22:04:30.990Z,8.15
2023-02-22T22:07:00.304Z,8.18
2023-02-22T22:09:29.261Z,8.02
2023-02-22T22:12:00.031Z,7.55
2023-02-22T22:14:27.708Z,8.23
2023-02-22T22:16:57.155Z,7.65
2023-02-22T22:19:24.805Z,7.47
2023-02-22T22:21:52.010Z,7.18
2023-02-22T22:24:20.554Z,6.32
2023-02-22T22:26:48.279Z,7.25
2023-02-22T22:29:17.898Z,7.05
2023-02-22T22:31:45.646Z,7.60
2023-02-22T22:34:12.957Z,6.40
2023-02-22T22:36:40.181Z,6.78
2023-02-22T22:39:07.527Z,6.80
2023-02-22T22:41:34.689Z,7.30
2023-02-22T22:44:01.878Z,7.60
2023-02-22T22:46:30.470Z,7.15
2023-02-22T22:48:57.827Z,7.53
2023-02-22T22:51:25.048Z,10.02
2023-02-22T22:53:52.244Z,8.50
2023-02-22T22:56:21.510Z,8.00
2023-02-22T22:58:51.146Z,7.75
2023-02-22T23:01:20.848Z,8.45
2023-02-22T23:03:53.624Z,8.57
2023-02-22T23:06:22.662Z,8.13
2023-02-22T23:08:54.097Z,8.13
2023-02-22T23:11:21.327Z,8.27
2023-02-22T23:13:48.556Z,8.73
2023-02-22T23:16:16.895Z,8.20
2023-02-22T23:18:44.163Z,8.65
2023-02-22T23:21:12.689Z,9.40
2023-02-22T23:23:39.887Z,9.57
2023-02-22T23:26:09.350Z,9.65
2023-02-22T23:28:36.739Z,9.40
2023-02-22T23:31:07.066Z,8.55
2023-02-22T23:33:34.312Z,8.32
2023-02-22T23:36:01.633Z,9.82
2023-02-22T23:38:30.584Z,9.07
2023-02-22T23:41:01.639Z,8.95
2023-02-22T23:43:29.027Z,9.35
2023-02-22T23:45:59.906Z,9.25
2023-02-22T23:48:27.128Z,8.88
2023-02-22T23:50:54.335Z,9.45
2023-02-22T23:53:21.508Z,9.50
2023-02-22T23:55:50.080Z,9.45
2023-02-22T23:58:17.342Z,8.88
